sensor_id;sensor_type;location;lat;lon;timestamp;P1;durP1;ratioP1;P2;durP2;ratioP2
29314;SDS011;16320;53.954;9.506;2024-03-08T00:00:32;52.10;;;22.58;;
29314;SDS011;16320;53.954;9.506;2024-03-08T00:03:04;54.25;;;23.63;;
29314;SDS011;16320;53.954;9.506;2024-03-08T00:05:33;50.30;;;22.52;;
29314;SDS011;16320;53.954;9.506;2024-03-08T00:08:01;57.67;;;25.83;;
29314;SDS011;16320;53.954;9.506;2024-03-08T00:10:29;59.67;;;24.13;;
29314;SDS011;16320;53.954;9.506;2024-03-08T00:12:58;58.13;;;22.83;;
29314;SDS011;16320;53.954;9.506;2024-03-08T00:15:27;49.08;;;22.67;;
29314;SDS011;16320;53.954;9.506;2024-03-08T00:17:55;52.35;;;21.90;;
29314;SDS011;16320;53.954;9.506;2024-03-08T00:20:24;50.38;;;22.08;;
29314;SDS011;16320;53.954;9.506;2024-03-08T00:22:53;52.83;;;21.63;;
29314;SDS011;16320;53.954;9.506;2024-03-08T00:25:24;52.05;;;23.60;;
29314;SDS011;16320;53.954;9.506;2024-03-08T00:27:54;57.85;;;24.75;;
29314;SDS011;16320;53.954;9.506;2024-03-08T00:30:23;53.90;;;23.00;;
29314;SDS011;16320;53.954;9.506;2024-03-08T00:32:51;47.33;;;23.13;;
29314;SDS011;16320;53.954;9.506;2024-03-08T00:35:20;49.83;;;23.75;;
29314;SDS011;16320;53.954;9.506;2024-03-08T00:37:49;62.03;;;23.58;;
29314;SDS011;16320;53.954;9.506;2024-03-08T00:40:17;51.28;;;23.48;;
29314;SDS011;16320;53.954;9.506;2024-03-08T00:42:45;50.75;;;22.20;;
29314;SDS011;16320;53.954;9.506;2024-03-08T00:45:13;46.90;;;21.30;;
29314;SDS011;16320;53.954;9.506;2024-03-08T00:47:42;57.75;;;22.33;;
29314;SDS011;16320;53.954;9.506;2024-03-08T00:50:11;53.05;;;23.15;;
29314;SDS011;16320;53.954;9.506;2024-03-08T00:52:40;47.25;;;21.27;;
29314;SDS011;16320;53.954;9.506;2024-03-08T00:55:08;55.40;;;23.70;;
29314;SDS011;16320;53.954;9.506;2024-03-08T00:57:37;50.45;;;21.30;;
29314;SDS011;16320;53.954;9.506;2024-03-08T01:00:08;54.88;;;24.55;;
29314;SDS011;16320;53.954;9.506;2024-03-08T01:02:39;46.83;;;21.27;;
29314;SDS011;16320;53.954;9.506;2024-03-08T01:05:10;53.80;;;23.20;;
29314;SDS011;16320;53.954;9.506;2024-03-08T01:07:39;48.47;;;21.40;;
29314;SDS011;16320;53.954;9.506;2024-03-08T01:10:07;52.08;;;23.90;;
29314;SDS011;16320;53.954;9.506;2024-03-08T01:12:37;53.10;;;22.08;;
29314;SDS011;16320;53.954;9.506;2024-03-08T01:15:06;51.70;;;21.33;;
29314;SDS011;16320;53.954;9.506;2024-03-08T01:17:38;51.10;;;21.55;;
29314;SDS011;16320;53.954;9.506;2024-03-08T01:20:07;46.72;;;21.55;;
29314;SDS011;16320;53.954;9.506;2024-03-08T01:22:38;50.15;;;21.88;;
29314;SDS011;16320;53.954;9.506;2024-03-08T01:25:08;47.67;;;22.02;;
29314;SDS011;16320;53.954;9.506;2024-03-08T01:27:36;40.97;;;20.20;;
29314;SDS011;16320;53.954;9.506;2024-03-08T01:30:05;44.30;;;20.85;;
29314;SDS011;16320;53.954;9.506;2024-03-08T01:32:34;46.83;;;21.10;;
29314;SDS011;16320;53.954;9.506;2024-03-08T01:35:03;47.05;;;22.40;;
29314;SDS011;16320;53.954;9.506;2024-03-08T01:37:32;48.03;;;20.23;;
29314;SDS011;16320;53.954;9.506;2024-03-08T01:40:00;45.58;;;20.92;;
29314;SDS011;16320;53.954;9.506;2024-03-08T01:42:30;45.13;;;20.25;;
29314;SDS011;16320;53.954;9.506;2024-03-08T01:44:58;49.13;;;22.00;;
29314;SDS011;16320;53.954;9.506;2024-03-08T01:47:26;49.50;;;21.08;;
29314;SDS011;16320;53.954;9.506;2024-03-08T01:49:55;49.70;;;20.30;;
29314;SDS011;16320;53.954;9.506;2024-03-08T01:52:24;50.88;;;21.95;;
29314;SDS011;16320;53.954;9.506;2024-03-08T01:54:53;47.45;;;21.58;;
29314;SDS011;16320;53.954;9.506;2024-03-08T01:57:22;43.83;;;21.35;;
29314;SDS011;16320;53.954;9.506;2024-03-08T01:59:51;43.03;;;19.83;;
29314;SDS011;16320;53.954;9.506;2024-03-08T02:02:21;49.72;;;21.13;;
29314;SDS011;16320;53.954;9.506;2024-03-08T02:04:49;45.75;;;19.98;;
29314;SDS011;16320;53.954;9.506;2024-03-08T02:07:19;48.58;;;20.77;;
29314;SDS011;16320;53.954;9.506;2024-03-08T02:09:48;51.45;;;19.60;;
29314;SDS011;16320;53.954;9.506;2024-03-08T02:12:17;46.72;;;20.23;;
29314;SDS011;16320;53.954;9.506;2024-03-08T02:14:47;45.45;;;20.42;;
29314;SDS011;16320;53.954;9.506;2024-03-08T02:17:15;40.05;;;20.13;;
29314;SDS011;16320;53.954;9.506;2024-03-08T02:19:43;41.20;;;19.33;;
29314;SDS011;16320;53.954;9.506;2024-03-08T02:22:13;43.40;;;18.10;;
29314;SDS011;16320;53.954;9.506;2024-03-08T02:24:41;44.78;;;19.83;;
29314;SDS011;16320;53.954;9.506;2024-03-08T02:27:10;43.65;;;18.85;;
29314;SDS011;16320;53.954;9.506;2024-03-08T02:29:40;40.35;;;19.48;;
29314;SDS011;16320;53.954;9.506;2024-03-08T02:32:10;36.17;;;17.48;;
29314;SDS011;16320;53.954;9.506;2024-03-08T02:34:40;39.70;;;18.40;;
29314;SDS011;16320;53.954;9.506;2024-03-08T02:37:08;46.30;;;18.58;;
29314;SDS011;16320;53.954;9.506;2024-03-08T02:39:36;37.33;;;17.80;;
29314;SDS011;16320;53.954;9.506;2024-03-08T02:42:05;42.13;;;18.58;;
29314;SDS011;16320;53.954;9.506;2024-03-08T02:44:36;46.90;;;19.23;;
29314;SDS011;16320;53.954;9.506;2024-03-08T02:47:04;41.25;;;18.73;;
29314;SDS011;16320;53.954;9.506;2024-03-08T02:49:32;41.78;;;18.83;;
29314;SDS011;16320;53.954;9.506;2024-03-08T02:52:01;43.10;;;18.00;;
29314;SDS011;16320;53.954;9.506;2024-03-08T02:54:29;39.50;;;17.73;;
29314;SDS011;16320;53.954;9.506;2024-03-08T02:56:58;39.88;;;18.10;;
29314;SDS011;16320;53.954;9.506;2024-03-08T02:59:26;42.53;;;18.65;;
29314;SDS011;16320;53.954;9.506;2024-03-08T03:01:55;36.20;;;17.45;;
29314;SDS011;16320;53.954;9.506;2024-03-08T03:04:24;39.28;;;18.02;;
29314;SDS011;16320;53.954;9.506;2024-03-08T03:06:52;38.58;;;17.40;;
29314;SDS011;16320;53.954;9.506;2024-03-08T03:09:21;42.97;;;17.95;;
29314;SDS011;16320;53.954;9.506;2024-03-08T03:11:54;37.92;;;17.67;;
29314;SDS011;16320;53.954;9.506;2024-03-08T03:14:22;38.92;;;17.50;;
29314;SDS011;16320;53.954;9.506;2024-03-08T03:16:50;45.42;;;18.85;;
29314;SDS011;16320;53.954;9.506;2024-03-08T03:19:18;43.45;;;19.70;;
29314;SDS011;16320;53.954;9.506;2024-03-08T03:21:47;44.97;;;18.67;;
29314;SDS011;16320;53.954;9.506;2024-03-08T03:24:16;45.28;;;19.20;;
29314;SDS011;16320;53.954;9.506;2024-03-08T03:26:44;41.83;;;18.83;;
29314;SDS011;16320;53.954;9.506;2024-03-08T03:29:15;44.47;;;20.58;;
29314;SDS011;16320;53.954;9.506;2024-03-08T03:31:44;37.85;;;18.27;;
29314;SDS011;16320;53.954;9.506;2024-03-08T03:34:13;47.13;;;18.73;;
29314;SDS011;16320;53.954;9.506;2024-03-08T03:36:41;47.67;;;18.42;;
29314;SDS011;16320;53.954;9.506;2024-03-08T03:39:11;39.58;;;18.40;;
29314;SDS011;16320;53.954;9.506;2024-03-08T03:41:43;46.38;;;19.73;;
29314;SDS011;16320;53.954;9.506;2024-03-08T03:44:13;39.25;;;17.73;;
29314;SDS011;16320;53.954;9.506;2024-03-08T03:46:41;53.00;;;19.40;;
29314;SDS011;16320;53.954;9.506;2024-03-08T03:49:11;42.53;;;18.17;;
29314;SDS011;16320;53.954;9.506;2024-03-08T03:51:40;40.30;;;18.38;;
29314;SDS011;16320;53.954;9.506;2024-03-08T03:54:08;41.15;;;18.90;;
29314;SDS011;16320;53.954;9.506;2024-03-08T03:56:37;46.70;;;19.77;;
29314;SDS011;16320;53.954;9.506;2024-03-08T03:59:07;47.20;;;18.90;;
29314;SDS011;16320;53.954;9.506;2024-03-08T04:01:36;41.45;;;19.23;;
29314;SDS011;16320;53.954;9.506;2024-03-08T04:04:09;45.15;;;19.40;;
29314;SDS011;16320;53.954;9.506;2024-03-08T04:06:38;44.45;;;19.05;;
29314;SDS011;16320;53.954;9.506;2024-03-08T04:09:08;51.25;;;19.30;;
29314;SDS011;16320;53.954;9.506;2024-03-08T04:11:38;51.15;;;20.92;;
29314;SDS011;16320;53.954;9.506;2024-03-08T04:14:07;41.40;;;18.65;;
29314;SDS011;16320;53.954;9.506;2024-03-08T04:16:37;42.92;;;18.85;;
29314;SDS011;16320;53.954;9.506;2024-03-08T04:19:05;44.38;;;18.92;;
29314;SDS011;16320;53.954;9.506;2024-03-08T04:21:33;50.30;;;21.40;;
29314;SDS011;16320;53.954;9.506;2024-03-08T04:24:02;43.95;;;18.45;;
29314;SDS011;16320;53.954;9.506;2024-03-08T04:26:30;49.53;;;20.23;;
29314;SDS011;16320;53.954;9.506;2024-03-08T04:29:00;46.83;;;19.83;;
29314;SDS011;16320;53.954;9.506;2024-03-08T04:31:28;56.45;;;20.75;;
29314;SDS011;16320;53.954;9.506;2024-03-08T04:33:57;52.30;;;22.05;;
29314;SDS011;16320;53.954;9.506;2024-03-08T04:36:25;46.67;;;21.27;;
29314;SDS011;16320;53.954;9.506;2024-03-08T04:38:54;54.13;;;19.83;;
29314;SDS011;16320;53.954;9.506;2024-03-08T04:41:23;48.00;;;20.50;;
29314;SDS011;16320;53.954;9.506;2024-03-08T04:43:52;57.38;;;21.05;;
29314;SDS011;16320;53.954;9.506;2024-03-08T04:46:24;49.45;;;22.23;;
29314;SDS011;16320;53.954;9.506;2024-03-08T04:48:52;58.13;;;22.60;;
29314;SDS011;16320;53.954;9.506;2024-03-08T04:51:22;56.83;;;22.38;;
29314;SDS011;16320;53.954;9.506;2024-03-08T04:53:50;65.13;;;24.17;;
29314;SDS011;16320;53.954;9.506;2024-03-08T04:56:18;55.85;;;23.30;;
29314;SDS011;16320;53.954;9.506;2024-03-08T04:58:47;61.55;;;25.08;;
29314;SDS011;16320;53.954;9.506;2024-03-08T05:01:17;68.63;;;25.20;;
29314;SDS011;16320;53.954;9.506;2024-03-08T05:03:45;70.97;;;25.75;;
29314;SDS011;16320;53.954;9.506;2024-03-08T05:06:16;74.93;;;29.52;;
29314;SDS011;16320;53.954;9.506;2024-03-08T05:08:47;73.55;;;28.35;;
29314;SDS011;16320;53.954;9.506;2024-03-08T05:11:17;70.72;;;26.77;;
29314;SDS011;16320;53.954;9.506;2024-03-08T05:13:45;68.93;;;27.52;;
29314;SDS011;16320;53.954;9.506;2024-03-08T05:16:14;66.88;;;27.85;;
29314;SDS011;16320;53.954;9.506;2024-03-08T05:18:42;70.88;;;27.02;;
29314;SDS011;16320;53.954;9.506;2024-03-08T05:21:13;71.25;;;27.38;;
29314;SDS011;16320;53.954;9.506;2024-03-08T05:23:46;68.82;;;26.80;;
29314;SDS011;16320;53.954;9.506;2024-03-08T05:26:16;70.55;;;27.83;;
29314;SDS011;16320;53.954;9.506;2024-03-08T05:28:44;79.47;;;28.00;;
29314;SDS011;16320;53.954;9.506;2024-03-08T05:31:19;76.15;;;29.15;;
29314;SDS011;16320;53.954;9.506;2024-03-08T05:33:49;73.20;;;28.50;;
29314;SDS011;16320;53.954;9.506;2024-03-08T05:36:18;76.90;;;28.85;;
29314;SDS011;16320;53.954;9.506;2024-03-08T05:38:46;68.57;;;27.45;;
29314;SDS011;16320;53.954;9.506;2024-03-08T05:41:24;71.85;;;28.60;;
29314;SDS011;16320;53.954;9.506;2024-03-08T05:43:56;72.10;;;27.50;;
29314;SDS011;16320;53.954;9.506;2024-03-08T05:46:24;73.72;;;30.10;;
29314;SDS011;16320;53.954;9.506;2024-03-08T05:48:52;72.03;;;29.40;;
29314;SDS011;16320;53.954;9.506;2024-03-08T05:51:23;75.95;;;30.63;;
29314;SDS011;16320;53.954;9.506;2024-03-08T05:53:53;54.47;;;20.60;;
29314;SDS011;16320;53.954;9.506;2024-03-08T05:56:22;72.03;;;28.45;;
29314;SDS011;16320;53.954;9.506;2024-03-08T05:58:50;67.88;;;28.73;;
29314;SDS011;16320;53.954;9.506;2024-03-08T06:01:19;76.53;;;28.27;;
29314;SDS011;16320;53.954;9.506;2024-03-08T06:03:48;84.45;;;30.67;;
29314;SDS011;16320;53.954;9.506;2024-03-08T06:06:17;75.43;;;30.40;;
29314;SDS011;16320;53.954;9.506;2024-03-08T06:08:46;77.43;;;30.98;;
29314;SDS011;16320;53.954;9.506;2024-03-08T06:11:19;78.28;;;29.98;;
29314;SDS011;16320;53.954;9.506;2024-03-08T06:13:48;79.00;;;29.40;;
29314;SDS011;16320;53.954;9.506;2024-03-08T06:16:16;66.32;;;27.95;;
29314;SDS011;16320;53.954;9.506;2024-03-08T06:18:44;79.57;;;30.92;;
29314;SDS011;16320;53.954;9.506;2024-03-08T06:21:21;75.75;;;30.95;;
29314;SDS011;16320;53.954;9.506;2024-03-08T06:23:55;81.05;;;29.90;;
29314;SDS011;16320;53.954;9.506;2024-03-08T06:26:25;73.45;;;31.02;;
29314;SDS011;16320;53.954;9.506;2024-03-08T06:28:56;67.45;;;30.17;;
29314;SDS011;16320;53.954;9.506;2024-03-08T06:31:25;74.72;;;30.92;;
29314;SDS011;16320;53.954;9.506;2024-03-08T06:33:54;76.43;;;31.17;;
29314;SDS011;16320;53.954;9.506;2024-03-08T06:36:23;74.45;;;30.67;;
29314;SDS011;16320;53.954;9.506;2024-03-08T06:38:51;74.88;;;30.42;;
29314;SDS011;16320;53.954;9.506;2024-03-08T06:41:21;72.63;;;29.73;;
29314;SDS011;16320;53.954;9.506;2024-03-08T06:43:49;78.82;;;30.33;;
29314;SDS011;16320;53.954;9.506;2024-03-08T06:46:18;73.20;;;30.88;;
29314;SDS011;16320;53.954;9.506;2024-03-08T06:48:47;72.70;;;31.23;;
29314;SDS011;16320;53.954;9.506;2024-03-08T06:51:17;79.97;;;30.83;;
29314;SDS011;16320;53.954;9.506;2024-03-08T06:53:45;78.57;;;31.80;;
29314;SDS011;16320;53.954;9.506;2024-03-08T06:56:15;80.13;;;30.83;;
29314;SDS011;16320;53.954;9.506;2024-03-08T06:58:43;80.05;;;33.30;;
29314;SDS011;16320;53.954;9.506;2024-03-08T07:01:11;65.07;;;29.33;;
29314;SDS011;16320;53.954;9.506;2024-03-08T07:03:43;59.47;;;23.63;;
29314;SDS011;16320;53.954;9.506;2024-03-08T07:06:11;72.65;;;29.50;;
29314;SDS011;16320;53.954;9.506;2024-03-08T07:08:42;75.75;;;32.65;;
29314;SDS011;16320;53.954;9.506;2024-03-08T07:11:12;72.82;;;30.20;;
29314;SDS011;16320;53.954;9.506;2024-03-08T07:13:45;69.93;;;29.88;;
29314;SDS011;16320;53.954;9.506;2024-03-08T07:16:15;73.85;;;29.70;;
29314;SDS011;16320;53.954;9.506;2024-03-08T07:18:44;67.88;;;30.52;;
29314;SDS011;16320;53.954;9.506;2024-03-08T07:21:13;73.28;;;29.40;;
29314;SDS011;16320;53.954;9.506;2024-03-08T07:23:41;71.28;;;28.67;;
29314;SDS011;16320;53.954;9.506;2024-03-08T07:26:29;68.65;;;29.95;;
29314;SDS011;16320;53.954;9.506;2024-03-08T07:28:58;73.00;;;30.30;;
29314;SDS011;16320;53.954;9.506;2024-03-08T07:31:28;70.20;;;30.42;;
29314;SDS011;16320;53.954;9.506;2024-03-08T07:34:11;68.38;;;31.17;;
29314;SDS011;16320;53.954;9.506;2024-03-08T07:36:39;70.68;;;30.90;;
29314;SDS011;16320;53.954;9.506;2024-03-08T07:39:07;66.75;;;31.17;;
29314;SDS011;16320;53.954;9.506;2024-03-08T07:41:38;68.95;;;30.60;;
29314;SDS011;16320;53.954;9.506;2024-03-08T07:44:07;70.32;;;30.95;;
29314;SDS011;16320;53.954;9.506;2024-03-08T07:46:36;66.82;;;28.65;;
29314;SDS011;16320;53.954;9.506;2024-03-08T07:49:04;76.55;;;29.40;;
29314;SDS011;16320;53.954;9.506;2024-03-08T07:51:37;67.20;;;29.83;;
29314;SDS011;16320;53.954;9.506;2024-03-08T07:54:08;64.68;;;29.48;;
29314;SDS011;16320;53.954;9.506;2024-03-08T07:56:36;64.47;;;29.23;;
29314;SDS011;16320;53.954;9.506;2024-03-08T07:59:04;64.88;;;29.98;;
29314;SDS011;16320;53.954;9.506;2024-03-08T08:01:33;65.10;;;28.30;;
29314;SDS011;16320;53.954;9.506;2024-03-08T08:04:01;64.13;;;29.50;;
29314;SDS011;16320;53.954;9.506;2024-03-08T08:06:30;64.85;;;28.90;;
29314;SDS011;16320;53.954;9.506;2024-03-08T08:08:59;70.30;;;30.70;;
29314;SDS011;16320;53.954;9.506;2024-03-08T08:11:28;67.20;;;29.27;;
29314;SDS011;16320;53.954;9.506;2024-03-08T08:13:57;63.45;;;28.05;;
29314;SDS011;16320;53.954;9.506;2024-03-08T08:16:26;66.28;;;29.42;;
29314;SDS011;16320;53.954;9.506;2024-03-08T08:18:54;66.38;;;28.63;;
29314;SDS011;16320;53.954;9.506;2024-03-08T08:21:22;67.15;;;30.45;;
29314;SDS011;16320;53.954;9.506;2024-03-08T08:23:52;69.88;;;31.08;;
29314;SDS011;16320;53.954;9.506;2024-03-08T08:26:21;63.42;;;29.70;;
29314;SDS011;16320;53.954;9.506;2024-03-08T08:28:52;60.53;;;28.73;;
29314;SDS011;16320;53.954;9.506;2024-03-08T08:31:21;60.75;;;29.05;;
29314;SDS011;16320;53.954;9.506;2024-03-08T08:33:49;62.17;;;28.83;;
29314;SDS011;16320;53.954;9.506;2024-03-08T08:36:22;61.25;;;29.80;;
29314;SDS011;16320;53.954;9.506;2024-03-08T08:38:55;58.22;;;28.42;;
29314;SDS011;16320;53.954;9.506;2024-03-08T08:41:24;61.03;;;29.77;;
29314;SDS011;16320;53.954;9.506;2024-03-08T08:43:53;57.08;;;27.25;;
29314;SDS011;16320;53.954;9.506;2024-03-08T08:46:39;58.05;;;27.98;;
29314;SDS011;16320;53.954;9.506;2024-03-08T08:49:07;54.38;;;27.25;;
29314;SDS011;16320;53.954;9.506;2024-03-08T08:51:37;60.55;;;29.52;;
29314;SDS011;16320;53.954;9.506;2024-03-08T08:54:05;57.60;;;27.90;;
29314;SDS011;16320;53.954;9.506;2024-03-08T08:56:37;55.72;;;27.30;;
29314;SDS011;16320;53.954;9.506;2024-03-08T08:59:05;59.92;;;27.58;;
29314;SDS011;16320;53.954;9.506;2024-03-08T09:01:34;54.05;;;27.48;;
29314;SDS011;16320;53.954;9.506;2024-03-08T09:04:02;48.60;;;25.40;;
29314;SDS011;16320;53.954;9.506;2024-03-08T09:06:31;51.55;;;27.02;;
29314;SDS011;16320;53.954;9.506;2024-03-08T09:08:59;50.63;;;23.95;;
29314;SDS011;16320;53.954;9.506;2024-03-08T09:11:32;49.83;;;26.05;;
29314;SDS011;16320;53.954;9.506;2024-03-08T09:14:00;47.55;;;24.77;;
29314;SDS011;16320;53.954;9.506;2024-03-08T09:16:29;48.80;;;25.05;;
29314;SDS011;16320;53.954;9.506;2024-03-08T09:18:59;45.97;;;24.33;;
29314;SDS011;16320;53.954;9.506;2024-03-08T09:21:27;44.60;;;23.83;;
29314;SDS011;16320;53.954;9.506;2024-03-08T09:23:56;44.38;;;22.38;;
29314;SDS011;16320;53.954;9.506;2024-03-08T09:26:25;44.47;;;23.00;;
29314;SDS011;16320;53.954;9.506;2024-03-08T09:28:55;42.53;;;22.35;;
29314;SDS011;16320;53.954;9.506;2024-03-08T09:31:23;38.30;;;21.33;;
29314;SDS011;16320;53.954;9.506;2024-03-08T09:33:54;46.33;;;22.38;;
29314;SDS011;16320;53.954;9.506;2024-03-08T09:36:22;37.88;;;20.52;;
29314;SDS011;16320;53.954;9.506;2024-03-08T09:38:51;44.08;;;23.20;;
29314;SDS011;16320;53.954;9.506;2024-03-08T09:41:19;41.38;;;22.48;;
29314;SDS011;16320;53.954;9.506;2024-03-08T09:43:47;48.28;;;24.38;;
29314;SDS011;16320;53.954;9.506;2024-03-08T09:46:16;45.05;;;24.15;;
29314;SDS011;16320;53.954;9.506;2024-03-08T09:48:47;35.70;;;21.38;;
29314;SDS011;16320;53.954;9.506;2024-03-08T09:51:17;42.75;;;22.33;;
29314;SDS011;16320;53.954;9.506;2024-03-08T09:53:50;40.95;;;22.52;;
29314;SDS011;16320;53.954;9.506;2024-03-08T09:56:20;37.50;;;22.20;;
29314;SDS011;16320;53.954;9.506;2024-03-08T09:58:50;40.20;;;21.60;;
29314;SDS011;16320;53.954;9.506;2024-03-08T10:01:41;39.00;;;21.02;;
29314;SDS011;16320;53.954;9.506;2024-03-08T10:04:11;43.67;;;21.00;;
29314;SDS011;16320;53.954;9.506;2024-03-08T10:06:40;38.17;;;21.27;;
29314;SDS011;16320;53.954;9.506;2024-03-08T10:09:08;35.53;;;20.92;;
29314;SDS011;16320;53.954;9.506;2024-03-08T10:11:39;40.22;;;20.08;;
29314;SDS011;16320;53.954;9.506;2024-03-08T10:14:10;37.92;;;20.17;;
29314;SDS011;16320;53.954;9.506;2024-03-08T10:16:39;38.00;;;19.67;;
29314;SDS011;16320;53.954;9.506;2024-03-08T10:19:08;38.08;;;20.17;;
29314;SDS011;16320;53.954;9.506;2024-03-08T10:21:51;37.95;;;18.75;;
29314;SDS011;16320;53.954;9.506;2024-03-08T10:24:20;31.85;;;18.08;;
29314;SDS011;16320;53.954;9.506;2024-03-08T10:26:53;31.33;;;17.55;;
29314;SDS011;16320;53.954;9.506;2024-03-08T10:29:26;34.10;;;17.98;;
29314;SDS011;16320;53.954;9.506;2024-03-08T10:31:55;28.50;;;16.30;;
29314;SDS011;16320;53.954;9.506;2024-03-08T10:34:24;28.92;;;16.60;;
29314;SDS011;16320;53.954;9.506;2024-03-08T10:36:53;32.95;;;18.08;;
29314;SDS011;16320;53.954;9.506;2024-03-08T10:39:34;30.88;;;17.45;;
29314;SDS011;16320;53.954;9.506;2024-03-08T10:42:04;32.10;;;18.02;;
29314;SDS011;16320;53.954;9.506;2024-03-08T10:44:48;31.33;;;17.17;;
29314;SDS011;16320;53.954;9.506;2024-03-08T10:47:26;27.67;;;16.20;;
29314;SDS011;16320;53.954;9.506;2024-03-08T10:50:17;33.40;;;17.13;;
29314;SDS011;16320;53.954;9.506;2024-03-08T10:52:51;27.77;;;15.85;;
29314;SDS011;16320;53.954;9.506;2024-03-08T10:55:22;30.08;;;16.65;;
29314;SDS011;16320;53.954;9.506;2024-03-08T10:57:53;32.20;;;16.58;;
29314;SDS011;16320;53.954;9.506;2024-03-08T11:00:21;26.30;;;16.60;;
29314;SDS011;16320;53.954;9.506;2024-03-08T11:02:53;27.70;;;16.67;;
29314;SDS011;16320;53.954;9.506;2024-03-08T11:08:20;29.08;;;16.90;;
29314;SDS011;16320;53.954;9.506;2024-03-08T11:16:10;29.42;;;16.63;;
29314;SDS011;16320;53.954;9.506;2024-03-08T11:19:06;28.85;;;17.13;;
29314;SDS011;16320;53.954;9.506;2024-03-08T11:21:59;30.05;;;17.00;;
29314;SDS011;16320;53.954;9.506;2024-03-08T11:24:38;32.92;;;16.73;;
29314;SDS011;16320;53.954;9.506;2024-03-08T11:27:08;28.77;;;17.60;;
29314;SDS011;16320;53.954;9.506;2024-03-08T11:29:38;33.65;;;17.38;;
29314;SDS011;16320;53.954;9.506;2024-03-08T11:34:48;31.30;;;17.38;;
29314;SDS011;16320;53.954;9.506;2024-03-08T11:37:18;27.88;;;15.48;;
29314;SDS011;16320;53.954;9.506;2024-03-08T11:39:51;27.23;;;16.85;;
29314;SDS011;16320;53.954;9.506;2024-03-08T11:42:26;30.02;;;17.63;;
29314;SDS011;16320;53.954;9.506;2024-03-08T11:44:54;31.05;;;17.05;;
29314;SDS011;16320;53.954;9.506;2024-03-08T11:47:24;30.13;;;16.88;;
29314;SDS011;16320;53.954;9.506;2024-03-08T11:49:53;29.85;;;16.63;;
29314;SDS011;16320;53.954;9.506;2024-03-08T11:52:23;30.05;;;17.85;;
29314;SDS011;16320;53.954;9.506;2024-03-08T11:54:52;26.58;;;16.10;;
29314;SDS011;16320;53.954;9.506;2024-03-08T11:57:24;30.23;;;17.73;;
29314;SDS011;16320;53.954;9.506;2024-03-08T11:59:55;30.40;;;16.42;;
29314;SDS011;16320;53.954;9.506;2024-03-08T12:02:26;40.85;;;17.50;;
29314;SDS011;16320;53.954;9.506;2024-03-08T12:04:59;27.70;;;16.23;;
29314;SDS011;16320;53.954;9.506;2024-03-08T12:07:30;26.63;;;15.15;;
29314;SDS011;16320;53.954;9.506;2024-03-08T12:12:50;29.30;;;15.60;;
29314;SDS011;16320;53.954;9.506;2024-03-08T12:15:22;28.88;;;16.38;;
29314;SDS011;16320;53.954;9.506;2024-03-08T12:17:52;27.40;;;15.23;;
29314;SDS011;16320;53.954;9.506;2024-03-08T12:20:26;27.23;;;15.15;;
29314;SDS011;16320;53.954;9.506;2024-03-08T12:22:57;27.40;;;15.35;;
29314;SDS011;16320;53.954;9.506;2024-03-08T12:25:27;26.25;;;14.82;;
29314;SDS011;16320;53.954;9.506;2024-03-08T12:28:09;30.30;;;15.13;;
29314;SDS011;16320;53.954;9.506;2024-03-08T12:33:19;25.67;;;15.82;;
29314;SDS011;16320;53.954;9.506;2024-03-08T12:35:50;24.80;;;15.35;;
29314;SDS011;16320;53.954;9.506;2024-03-08T12:38:27;31.25;;;17.95;;
29314;SDS011;16320;53.954;9.506;2024-03-08T12:40:58;29.98;;;16.35;;
29314;SDS011;16320;53.954;9.506;2024-03-08T12:43:28;31.52;;;16.00;;
29314;SDS011;16320;53.954;9.506;2024-03-08T12:45:58;26.15;;;15.13;;
29314;SDS011;16320;53.954;9.506;2024-03-08T12:48:27;29.65;;;17.63;;
29314;SDS011;16320;53.954;9.506;2024-03-08T12:50:55;27.60;;;15.30;;
29314;SDS011;16320;53.954;9.506;2024-03-08T12:53:23;26.23;;;15.70;;
29314;SDS011;16320;53.954;9.506;2024-03-08T12:55:55;30.42;;;16.38;;
29314;SDS011;16320;53.954;9.506;2024-03-08T12:58:24;30.05;;;16.30;;
29314;SDS011;16320;53.954;9.506;2024-03-08T13:00:53;27.75;;;16.05;;
29314;SDS011;16320;53.954;9.506;2024-03-08T13:03:22;27.60;;;16.08;;
29314;SDS011;16320;53.954;9.506;2024-03-08T13:05:50;25.60;;;14.43;;
29314;SDS011;16320;53.954;9.506;2024-03-08T13:08:18;25.65;;;15.27;;
29314;SDS011;16320;53.954;9.506;2024-03-08T13:10:48;26.67;;;15.98;;
29314;SDS011;16320;53.954;9.506;2024-03-08T13:13:19;26.20;;;15.18;;
29314;SDS011;16320;53.954;9.506;2024-03-08T13:15:47;23.27;;;13.88;;
29314;SDS011;16320;53.954;9.506;2024-03-08T13:18:16;26.17;;;15.40;;
29314;SDS011;16320;53.954;9.506;2024-03-08T13:20:44;25.15;;;14.32;;
29314;SDS011;16320;53.954;9.506;2024-03-08T13:23:16;24.83;;;14.43;;
29314;SDS011;16320;53.954;9.506;2024-03-08T13:25:45;24.55;;;15.40;;
29314;SDS011;16320;53.954;9.506;2024-03-08T13:28:14;22.83;;;14.13;;
29314;SDS011;16320;53.954;9.506;2024-03-08T13:30:43;22.63;;;14.45;;
29314;SDS011;16320;53.954;9.506;2024-03-08T13:33:11;26.90;;;15.77;;
29314;SDS011;16320;53.954;9.506;2024-03-08T13:35:41;23.15;;;14.30;;
29314;SDS011;16320;53.954;9.506;2024-03-08T13:38:09;25.65;;;14.35;;
29314;SDS011;16320;53.954;9.506;2024-03-08T13:40:39;25.67;;;14.65;;
29314;SDS011;16320;53.954;9.506;2024-03-08T13:43:09;23.45;;;14.55;;
29314;SDS011;16320;53.954;9.506;2024-03-08T13:45:39;23.27;;;14.52;;
29314;SDS011;16320;53.954;9.506;2024-03-08T13:48:07;21.98;;;14.18;;
29314;SDS011;16320;53.954;9.506;2024-03-08T13:50:39;24.92;;;14.73;;
29314;SDS011;16320;53.954;9.506;2024-03-08T13:53:10;23.95;;;14.13;;
29314;SDS011;16320;53.954;9.506;2024-03-08T13:55:41;25.77;;;15.40;;
29314;SDS011;16320;53.954;9.506;2024-03-08T13:58:09;24.05;;;15.52;;
29314;SDS011;16320;53.954;9.506;2024-03-08T14:00:40;25.52;;;15.52;;
29314;SDS011;16320;53.954;9.506;2024-03-08T14:03:12;25.10;;;15.73;;
29314;SDS011;16320;53.954;9.506;2024-03-08T14:05:41;27.13;;;15.45;;
29314;SDS011;16320;53.954;9.506;2024-03-08T14:08:09;27.27;;;15.88;;
29314;SDS011;16320;53.954;9.506;2024-03-08T14:10:40;25.90;;;16.58;;
29314;SDS011;16320;53.954;9.506;2024-03-08T14:13:16;24.33;;;15.50;;
29314;SDS011;16320;53.954;9.506;2024-03-08T14:15:45;26.33;;;16.75;;
29314;SDS011;16320;53.954;9.506;2024-03-08T14:18:14;26.27;;;16.17;;
29314;SDS011;16320;53.954;9.506;2024-03-08T14:20:44;27.50;;;16.77;;
29314;SDS011;16320;53.954;9.506;2024-03-08T14:23:13;25.95;;;16.63;;
29314;SDS011;16320;53.954;9.506;2024-03-08T14:25:41;29.02;;;16.65;;
29314;SDS011;16320;53.954;9.506;2024-03-08T14:28:10;29.05;;;18.08;;
29314;SDS011;16320;53.954;9.506;2024-03-08T14:30:38;28.17;;;16.02;;
29314;SDS011;16320;53.954;9.506;2024-03-08T14:33:09;27.67;;;16.17;;
29314;SDS011;16320;53.954;9.506;2024-03-08T14:35:38;25.55;;;15.43;;
29314;SDS011;16320;53.954;9.506;2024-03-08T14:38:08;28.42;;;16.45;;
29314;SDS011;16320;53.954;9.506;2024-03-08T14:40:37;34.20;;;18.23;;
29314;SDS011;16320;53.954;9.506;2024-03-08T14:43:06;29.27;;;17.27;;
29314;SDS011;16320;53.954;9.506;2024-03-08T14:45:34;31.15;;;18.27;;
29314;SDS011;16320;53.954;9.506;2024-03-08T14:48:04;32.67;;;17.85;;
29314;SDS011;16320;53.954;9.506;2024-03-08T14:50:33;30.70;;;17.80;;
29314;SDS011;16320;53.954;9.506;2024-03-08T14:53:03;30.00;;;18.38;;